Newport, Mississippi
Current Conditions -  °F | °C
As of 11:54 PM on Friday 26 Dec 2014 (Local Time) from KMEM Reporting Station
Overcast Overcast  
Wind Chill: 53°   Ceiling: 3400
Heat Index: 53°   Visibility: 10mi
Dew Point: 44°   Wind: 8mph
Humidity: 71%   Direction: 160°SSE
Pressure: 30.14"   Gusts: NA
Location:  34.9155°N, 90.1878°W
Report Text: KMEM 270554Z 16007KT 10SM OVC034 12/07 A3014 RMK AO2 SLP206 T01170067 10117 20100 401330050 52001 $
Loading
Personal Weather Stations






























Interactive Weather Map New forecast layout! Learn more

10-Day Weather Forecast

Advertisements
Track Severe Weather on mobile